createdAt,value
2018-12-05T00:00:14.826Z,61.53
2018-12-05T00:02:43.637Z,61.81
2018-12-05T00:05:12.435Z,61.67
2018-12-05T00:07:41.277Z,61.62
2018-12-05T00:10:10.098Z,62.00
2018-12-05T00:12:38.807Z,62.24
2018-12-05T00:15:07.610Z,62.00
2018-12-05T00:17:36.482Z,62.25
2018-12-05T00:20:07.170Z,62.02
2018-12-05T00:22:35.919Z,62.17
2018-12-05T00:25:04.803Z,61.66
2018-12-05T00:27:33.464Z,61.16
2018-12-05T00:30:02.259Z,62.07
2018-12-05T00:32:30.991Z,61.58
2018-12-05T00:34:59.804Z,61.58
2018-12-05T00:37:28.629Z,61.50
2018-12-05T00:39:57.459Z,61.50
2018-12-05T00:42:26.147Z,61.07
2018-12-05T00:44:54.830Z,61.87
2018-12-05T00:47:23.672Z,61.62
2018-12-05T00:49:52.334Z,62.01
2018-12-05T00:52:21.045Z,62.07
2018-12-05T00:54:49.722Z,61.49
2018-12-05T00:57:18.606Z,61.62
2018-12-05T00:59:47.425Z,62.30
2018-12-05T01:02:16.269Z,61.80
2018-12-05T01:04:45.067Z,62.48
2018-12-05T01:07:13.895Z,62.84
2018-12-05T01:09:42.775Z,61.76
2018-12-05T01:12:11.535Z,61.55
2018-12-05T01:14:40.343Z,62.36
2018-12-05T01:17:09.366Z,62.55
2018-12-05T01:19:38.147Z,62.42
2018-12-05T01:22:06.892Z,62.09
2018-12-05T01:24:35.650Z,62.07
2018-12-05T01:27:04.422Z,63.09
2018-12-05T01:29:33.278Z,62.86
2018-12-05T01:32:02.171Z,63.18
2018-12-05T01:34:31.896Z,63.14
2018-12-05T01:37:00.715Z,62.88
2018-12-05T01:39:29.464Z,63.00
2018-12-05T01:41:58.265Z,62.83
2018-12-05T01:44:27.159Z,63.29
2018-12-05T01:46:56.106Z,63.11
2018-12-05T01:49:25.719Z,62.64
2018-12-05T01:51:54.527Z,62.56
2018-12-05T01:54:23.311Z,63.01
2018-12-05T01:56:52.151Z,62.72
2018-12-05T01:59:21.088Z,62.91
2018-12-05T02:01:50.059Z,63.43
2018-12-05T02:04:18.871Z,63.67
2018-12-05T02:06:47.628Z,64.22
2018-12-05T02:09:16.344Z,64.30
2018-12-05T02:11:45.159Z,63.20
2018-12-05T02:14:14.997Z,63.06
2018-12-05T02:16:44.715Z,63.03
2018-12-05T02:19:13.431Z,62.77
2018-12-05T02:21:42.146Z,63.60
2018-12-05T02:24:10.861Z,63.82
2018-12-05T02:26:39.576Z,63.79
2018-12-05T02:29:08.244Z,63.92
2018-12-05T02:31:36.973Z,63.64
2018-12-05T02:34:05.751Z,63.51
2018-12-05T02:36:34.465Z,63.73
2018-12-05T02:39:03.991Z,64.45
2018-12-05T02:41:33.791Z,63.68
2018-12-05T02:44:02.551Z,63.03
2018-12-05T02:46:31.388Z,62.67
2018-12-05T02:49:00.135Z,63.09
2018-12-05T02:51:28.865Z,62.69
2018-12-05T02:53:57.661Z,62.44
2018-12-05T02:56:26.412Z,62.19
2018-12-05T02:58:55.069Z,62.49
2018-12-05T03:01:23.861Z,62.54
2018-12-05T03:03:52.647Z,62.35
2018-12-05T03:06:21.391Z,62.41
2018-12-05T03:08:50.103Z,62.50
2018-12-05T03:11:18.853Z,62.34
2018-12-05T03:13:47.515Z,61.96
2018-12-05T03:16:17.274Z,61.96
2018-12-05T03:18:45.991Z,63.24
2018-12-05T03:21:14.691Z,62.18
2018-12-05T03:23:43.408Z,62.27
2018-12-05T03:26:12.113Z,62.45
2018-12-05T03:28:40.780Z,62.41
2018-12-05T03:31:09.496Z,62.43
2018-12-05T03:33:38.284Z,62.72
2018-12-05T03:36:07.009Z,62.86
2018-12-05T03:38:35.672Z,62.53
2018-12-05T03:41:04.373Z,62.32
2018-12-05T03:43:33.098Z,61.92
2018-12-05T03:46:01.811Z,61.75
2018-12-05T03:48:30.475Z,61.92
2018-12-05T03:50:59.180Z,62.00
2018-12-05T03:53:27.951Z,61.47
2018-12-05T03:55:56.698Z,62.55
2018-12-05T03:58:25.515Z,62.41
2018-12-05T04:00:54.333Z,62.38
2018-12-05T04:03:23.022Z,62.44
2018-12-05T04:05:51.822Z,61.43
2018-12-05T04:08:20.622Z,61.31
2018-12-05T04:10:49.335Z,62.15
2018-12-05T04:13:17.979Z,62.14
2018-12-05T04:15:46.648Z,61.23
2018-12-05T04:18:15.359Z,61.66
2018-12-05T04:20:44.071Z,61.76
2018-12-05T04:23:12.910Z,63.07
2018-12-05T04:25:41.656Z,62.57
2018-12-05T04:28:11.535Z,62.45
2018-12-05T04:30:40.283Z,62.47
2018-12-05T04:33:11.015Z,61.31
2018-12-05T04:35:39.700Z,61.79
2018-12-05T04:38:08.431Z,62.30
2018-12-05T04:40:37.166Z,62.08
2018-12-05T04:43:05.995Z,62.55
2018-12-05T04:45:34.864Z,62.02
2018-12-05T04:48:03.602Z,61.79
2018-12-05T04:50:32.351Z,62.60
2018-12-05T04:53:01.070Z,65.85
2018-12-05T04:55:29.800Z,62.92
2018-12-05T04:57:58.482Z,62.14
2018-12-05T05:00:27.979Z,62.01
2018-12-05T05:02:56.678Z,61.63
2018-12-05T05:05:25.402Z,61.27
2018-12-05T05:07:54.050Z,61.44
2018-12-05T05:10:22.769Z,62.71
2018-12-05T05:12:51.479Z,62.17
2018-12-05T05:15:20.204Z,61.54
2018-12-05T05:17:48.918Z,62.06
2018-12-05T05:20:17.678Z,62.03
2018-12-05T05:22:46.477Z,61.98
2018-12-05T05:25:15.246Z,61.59
2018-12-05T05:27:46.036Z,62.37
2018-12-05T05:30:14.678Z,61.63
2018-12-05T05:32:45.275Z,62.68
2018-12-05T05:35:13.962Z,61.93
2018-12-05T05:37:42.623Z,61.97
2018-12-05T05:40:11.414Z,62.34
2018-12-05T05:42:40.160Z,63.23
2018-12-05T05:45:08.882Z,62.38
2018-12-05T05:47:37.581Z,62.53
2018-12-05T05:50:06.985Z,62.30
2018-12-05T05:52:35.674Z,63.08
2018-12-05T05:55:04.618Z,62.48
2018-12-05T05:57:33.341Z,63.24
2018-12-05T06:00:02.055Z,62.57
2018-12-05T06:02:30.763Z,62.37
2018-12-05T06:04:59.408Z,61.92
2018-12-05T06:07:28.134Z,62.58
2018-12-05T06:09:56.900Z,61.94
2018-12-05T06:12:25.690Z,62.13
2018-12-05T06:14:54.431Z,63.08
2018-12-05T06:17:23.195Z,63.30
2018-12-05T06:19:51.899Z,63.31
2018-12-05T06:22:20.579Z,63.11
2018-12-05T06:24:49.283Z,63.19
2018-12-05T06:27:18.043Z,63.35
2018-12-05T06:29:47.614Z,63.22
2018-12-05T06:32:16.314Z,62.75
2018-12-05T06:34:45.033Z,62.92
2018-12-05T06:37:13.798Z,63.28
2018-12-05T06:39:42.461Z,62.71
2018-12-05T06:42:11.147Z,62.93
2018-12-05T06:44:39.875Z,62.48
2018-12-05T06:47:08.579Z,62.31
2018-12-05T06:49:37.334Z,63.21
2018-12-05T06:52:06.023Z,62.60
2018-12-05T06:54:34.735Z,62.59
2018-12-05T06:57:03.551Z,62.92
2018-12-05T06:59:32.251Z,63.77
2018-12-05T07:02:00.970Z,63.21
2018-12-05T07:04:30.810Z,64.00
2018-12-05T07:06:59.502Z,63.62
2018-12-05T07:09:28.185Z,62.99
2018-12-05T07:11:56.951Z,63.81
2018-12-05T07:14:25.619Z,63.47
2018-12-05T07:16:54.270Z,63.41
2018-12-05T07:19:22.960Z,64.33
2018-12-05T07:21:51.690Z,64.11
2018-12-05T07:24:20.394Z,63.34
2018-12-05T07:26:49.061Z,62.58
2018-12-05T07:29:17.778Z,62.83
2018-12-05T07:31:46.476Z,62.50
2018-12-05T07:34:15.187Z,63.05
2018-12-05T07:36:44.410Z,63.13
2018-12-05T07:39:14.089Z,62.85
2018-12-05T07:41:42.760Z,63.03
2018-12-05T07:44:11.490Z,63.02
2018-12-05T07:46:40.227Z,63.18
2018-12-05T07:49:08.893Z,63.25
2018-12-05T07:51:37.590Z,63.35
2018-12-05T07:54:06.276Z,62.88
2018-12-05T07:56:35.026Z,62.89
2018-12-05T07:59:03.814Z,63.84
2018-12-05T08:01:32.559Z,64.02
2018-12-05T08:04:01.231Z,64.17
2018-12-05T08:06:29.927Z,63.42
2018-12-05T08:08:58.592Z,63.12
2018-12-05T08:11:27.258Z,63.75
2018-12-05T08:13:56.007Z,63.97
2018-12-05T08:16:24.715Z,63.78
2018-12-05T08:18:53.391Z,64.52
2018-12-05T08:21:22.118Z,64.23
2018-12-05T08:23:50.836Z,64.73
2018-12-05T08:26:19.567Z,64.08
2018-12-05T08:28:48.278Z,63.89
2018-12-05T08:31:17.018Z,64.04
2018-12-05T08:33:45.726Z,63.92
2018-12-05T08:36:14.454Z,64.38
2018-12-05T08:38:43.165Z,64.66
2018-12-05T08:41:11.955Z,63.90
2018-12-05T08:43:40.659Z,64.20
2018-12-05T08:46:09.451Z,64.83
2018-12-05T08:48:38.143Z,65.08
2018-12-05T08:51:06.854Z,63.90
2018-12-05T08:53:35.599Z,63.90
2018-12-05T08:56:04.316Z,64.44
2018-12-05T08:58:33.098Z,64.39
2018-12-05T09:01:01.963Z,64.35
2018-12-05T09:03:30.771Z,64.47
2018-12-05T09:05:59.482Z,64.34
2018-12-05T09:08:28.253Z,64.42
2018-12-05T09:10:57.010Z,64.42
2018-12-05T09:13:25.666Z,64.44
2018-12-05T09:15:54.369Z,64.83
2018-12-05T09:18:23.090Z,64.20
2018-12-05T09:20:51.774Z,64.63
2018-12-05T09:23:20.514Z,64.80
2018-12-05T09:25:49.231Z,66.09
2018-12-05T09:28:17.951Z,66.18
2018-12-05T09:30:46.672Z,66.17
2018-12-05T09:33:15.383Z,66.08
2018-12-05T09:35:44.027Z,67.19
2018-12-05T09:38:12.739Z,67.19
2018-12-05T09:40:41.453Z,67.37
2018-12-05T09:43:10.169Z,68.27
2018-12-05T09:45:38.866Z,68.10
2018-12-05T09:48:07.568Z,67.33
2018-12-05T09:50:36.286Z,66.91
2018-12-05T09:53:05.054Z,67.27
2018-12-05T09:55:33.774Z,66.35
2018-12-05T09:58:02.494Z,65.91
2018-12-05T10:00:31.195Z,65.66
2018-12-05T10:02:59.903Z,65.46
2018-12-05T10:05:28.600Z,65.63
2018-12-05T10:07:57.342Z,65.58
2018-12-05T10:10:26.058Z,65.24
2018-12-05T10:12:54.771Z,65.91
2018-12-05T10:15:23.538Z,65.29
2018-12-05T10:17:52.268Z,65.17
2018-12-05T10:20:22.006Z,64.84
2018-12-05T10:22:50.706Z,65.29
2018-12-05T10:25:19.410Z,64.81
2018-12-05T10:27:48.102Z,64.67
2018-12-05T10:30:16.841Z,64.18
2018-12-05T10:32:45.551Z,64.62
2018-12-05T10:35:14.234Z,64.82
2018-12-05T10:37:42.935Z,63.71
2018-12-05T10:40:11.638Z,63.59
2018-12-05T10:42:40.335Z,63.45
2018-12-05T10:45:09.038Z,64.11
2018-12-05T10:47:37.755Z,63.33
2018-12-05T10:50:07.395Z,63.21
2018-12-05T10:52:36.086Z,62.96
2018-12-05T10:55:05.429Z,62.43
2018-12-05T10:57:34.143Z,62.00
2018-12-05T11:00:03.122Z,62.12
2018-12-05T11:02:37.339Z,61.94
2018-12-05T11:05:11.559Z,62.56
2018-12-05T11:07:45.766Z,62.58
2018-12-05T11:10:20.035Z,62.41
2018-12-05T11:12:54.219Z,61.97
2018-12-05T11:15:28.398Z,62.81
2018-12-05T11:18:02.639Z,62.94
2018-12-05T11:20:36.818Z,63.46
2018-12-05T11:23:14.697Z,63.17
2018-12-05T11:25:44.285Z,63.36
2018-12-05T11:28:13.005Z,62.22
2018-12-05T11:30:42.779Z,63.03
2018-12-05T11:33:11.534Z,63.15
2018-12-05T11:35:40.234Z,62.60
2018-12-05T11:38:08.943Z,62.45
2018-12-05T11:40:37.698Z,61.58
2018-12-05T11:43:06.439Z,61.41
2018-12-05T11:45:35.118Z,60.59
2018-12-05T11:48:03.855Z,60.19
2018-12-05T11:50:32.581Z,60.94
2018-12-05T11:53:01.340Z,60.47
2018-12-05T11:55:30.093Z,61.13
2018-12-05T11:57:58.839Z,61.18
2018-12-05T12:00:27.550Z,60.30
2018-12-05T12:02:56.266Z,60.24
2018-12-05T12:05:26.989Z,59.33
2018-12-05T12:07:55.761Z,59.08
2018-12-05T12:10:28.684Z,58.63
2018-12-05T12:13:05.582Z,60.24
2018-12-05T12:15:34.350Z,59.77
2018-12-05T12:18:03.107Z,60.10
2018-12-05T12:20:31.819Z,59.61
2018-12-05T12:23:00.587Z,59.87
2018-12-05T12:25:29.315Z,59.73
2018-12-05T12:27:57.994Z,59.59
2018-12-05T12:30:26.718Z,60.10
2018-12-05T12:32:55.466Z,59.30
2018-12-05T12:35:24.208Z,59.14
2018-12-05T12:37:52.951Z,59.05
2018-12-05T12:40:21.695Z,59.29
2018-12-05T12:42:50.415Z,59.42
2018-12-05T12:45:20.109Z,59.45
2018-12-05T12:47:48.922Z,58.76
2018-12-05T12:50:17.657Z,58.41
2018-12-05T12:52:46.347Z,58.35
2018-12-05T12:55:15.162Z,58.55
2018-12-05T12:57:43.870Z,58.41
2018-12-05T13:00:12.573Z,58.66
2018-12-05T13:02:41.224Z,59.01
2018-12-05T13:05:09.990Z,59.14
2018-12-05T13:07:38.695Z,59.06
2018-12-05T13:10:07.774Z,66.30
2018-12-05T13:12:36.466Z,58.59
2018-12-05T13:15:05.383Z,57.55
2018-12-05T13:17:34.128Z,57.86
2018-12-05T13:20:02.935Z,57.77
2018-12-05T13:22:31.635Z,58.42
2018-12-05T13:25:00.306Z,57.95
2018-12-05T13:27:29.038Z,56.89
2018-12-05T13:29:57.769Z,56.88
2018-12-05T13:32:26.500Z,57.64
2018-12-05T13:34:55.918Z,57.32
2018-12-05T13:37:24.579Z,57.05
2018-12-05T13:39:53.467Z,56.68
2018-12-05T13:42:22.206Z,56.74
2018-12-05T13:44:50.902Z,56.81
2018-12-05T13:47:19.638Z,56.95
2018-12-05T13:49:48.359Z,56.91
2018-12-05T13:52:17.089Z,56.92
2018-12-05T13:54:45.866Z,57.29
2018-12-05T13:57:15.127Z,57.13
2018-12-05T13:59:43.922Z,57.43
2018-12-05T14:02:12.667Z,58.21
2018-12-05T14:04:41.447Z,58.18
2018-12-05T14:07:10.162Z,58.05
2018-12-05T14:09:38.846Z,58.16
2018-12-05T14:12:09.531Z,58.25
2018-12-05T14:14:38.249Z,57.97
2018-12-05T14:17:06.955Z,58.47
2018-12-05T14:19:35.675Z,57.64
2018-12-05T14:22:04.427Z,57.88
2018-12-05T14:24:33.122Z,57.83
2018-12-05T14:27:01.799Z,58.30
2018-12-05T14:29:30.475Z,57.49
2018-12-05T14:31:59.123Z,58.12
2018-12-05T14:34:27.854Z,57.95
2018-12-05T14:36:56.607Z,57.69
2018-12-05T14:39:25.312Z,58.02
2018-12-05T14:41:54.075Z,57.35
2018-12-05T14:44:22.767Z,56.89
2018-12-05T14:46:51.552Z,57.29
2018-12-05T14:49:20.183Z,57.23
2018-12-05T14:51:48.880Z,57.59
2018-12-05T14:54:17.590Z,57.32
2018-12-05T14:56:46.283Z,57.13
2018-12-05T14:59:15.023Z,57.38
2018-12-05T15:01:43.827Z,57.62
2018-12-05T15:04:13.315Z,57.34
2018-12-05T15:06:41.995Z,57.40
2018-12-05T15:09:11.496Z,57.65
2018-12-05T15:11:40.398Z,57.96
2018-12-05T15:14:09.127Z,57.44
2018-12-05T15:16:37.859Z,57.66
2018-12-05T15:19:06.671Z,57.24
2018-12-05T15:21:35.510Z,57.82
2018-12-05T15:24:04.254Z,58.04
2018-12-05T15:26:33.095Z,58.96
2018-12-05T15:29:01.947Z,58.04
2018-12-05T15:31:30.727Z,57.98
2018-12-05T15:34:00.486Z,58.01
2018-12-05T15:36:29.121Z,57.98
2018-12-05T15:38:57.923Z,57.48
2018-12-05T15:41:26.671Z,58.17
2018-12-05T15:43:55.421Z,57.83
2018-12-05T15:46:24.194Z,58.17
2018-12-05T15:48:52.919Z,58.14
2018-12-05T15:51:21.647Z,58.25
2018-12-05T15:53:50.354Z,58.69
2018-12-05T15:56:19.091Z,57.90
2018-12-05T15:58:47.802Z,57.87
2018-12-05T16:01:16.475Z,58.25
2018-12-05T16:03:45.247Z,58.51
2018-12-05T16:06:13.987Z,57.94
2018-12-05T16:08:42.833Z,58.69
2018-12-05T16:11:11.483Z,58.69
2018-12-05T16:13:40.207Z,58.03
2018-12-05T16:16:08.937Z,58.48
2018-12-05T16:18:37.710Z,58.53
2018-12-05T16:21:06.515Z,58.36
2018-12-05T16:23:35.196Z,58.42
2018-12-05T16:26:10.464Z,58.08
2018-12-05T16:28:34.554Z,58.85
2018-12-05T16:31:03.253Z,58.54
2018-12-05T16:33:31.942Z,58.52
2018-12-05T16:36:00.745Z,58.86
2018-12-05T16:38:29.488Z,58.77
2018-12-05T16:40:58.215Z,58.48
2018-12-05T16:43:26.923Z,58.22
2018-12-05T16:45:55.647Z,58.87
2018-12-05T16:48:24.295Z,60.45
2018-12-05T16:50:52.995Z,57.74
2018-12-05T16:53:21.705Z,57.45
2018-12-05T16:55:50.437Z,57.10
2018-12-05T16:58:19.207Z,58.52
2018-12-05T17:00:47.956Z,64.23
2018-12-05T17:03:16.814Z,57.56
2018-12-05T17:05:45.582Z,57.30
2018-12-05T17:08:14.242Z,57.81
2018-12-05T17:10:42.938Z,58.14
2018-12-05T17:13:14.386Z,58.02
2018-12-05T17:15:43.095Z,58.45
2018-12-05T17:18:11.808Z,58.31
2018-12-05T17:20:41.338Z,59.08
2018-12-05T17:23:10.031Z,58.89
2018-12-05T17:25:39.823Z,58.74
2018-12-05T17:28:08.543Z,59.02
2018-12-05T17:30:37.187Z,59.35
2018-12-05T17:33:05.944Z,59.54
2018-12-05T17:35:34.603Z,59.28
2018-12-05T17:38:03.374Z,60.66
2018-12-05T17:40:32.134Z,59.40
2018-12-05T17:43:01.607Z,59.82
2018-12-05T17:45:30.407Z,59.75
2018-12-05T17:47:59.140Z,59.86
2018-12-05T17:50:27.915Z,59.57
2018-12-05T17:52:56.694Z,59.86
2018-12-05T17:55:26.279Z,59.32
2018-12-05T17:57:54.986Z,59.61
2018-12-05T18:00:23.707Z,59.35
2018-12-05T18:02:52.425Z,59.44
2018-12-05T18:05:21.174Z,59.92
2018-12-05T18:07:49.809Z,59.79
2018-12-05T18:10:18.575Z,59.64
2018-12-05T18:12:47.290Z,60.01
2018-12-05T18:15:16.030Z,60.13
2018-12-05T18:17:45.010Z,59.79
2018-12-05T18:20:13.799Z,59.67
2018-12-05T18:22:42.518Z,59.59
2018-12-05T18:25:11.359Z,60.49
2018-12-05T18:27:40.102Z,59.95
2018-12-05T18:30:09.461Z,60.73
2018-12-05T18:32:38.241Z,60.82
2018-12-05T18:35:07.067Z,60.82
2018-12-05T18:37:35.806Z,60.17
2018-12-05T18:40:04.540Z,60.36
2018-12-05T18:42:33.256Z,60.07
2018-12-05T18:45:02.061Z,60.10
2018-12-05T18:47:31.887Z,60.57
2018-12-05T18:50:00.626Z,60.84
2018-12-05T18:52:29.406Z,60.31
2018-12-05T18:54:58.150Z,60.39
2018-12-05T18:57:27.040Z,60.42
2018-12-05T19:00:01.258Z,60.72
2018-12-05T19:02:26.467Z,61.33
2018-12-05T19:07:37.218Z,61.64
2018-12-05T19:10:06.015Z,61.69
2018-12-05T19:12:35.723Z,62.71
2018-12-05T19:15:04.850Z,62.91
2018-12-05T19:17:33.599Z,64.01
2018-12-05T19:20:02.378Z,64.93
2018-12-05T19:22:32.095Z,65.25
2018-12-05T19:25:00.901Z,64.94
2018-12-05T19:27:29.747Z,65.04
2018-12-05T19:29:58.446Z,65.90
2018-12-05T19:32:27.204Z,65.91
2018-12-05T19:34:56.255Z,66.34
2018-12-05T19:37:25.016Z,66.32
2018-12-05T19:39:53.767Z,66.33
2018-12-05T19:42:22.519Z,66.13
2018-12-05T19:44:51.279Z,66.44
2018-12-05T19:47:20.030Z,67.27
2018-12-05T19:49:48.772Z,67.91
2018-12-05T19:52:17.534Z,67.78
2018-12-05T19:54:46.213Z,67.86
2018-12-05T19:57:15.658Z,67.72
2018-12-05T19:59:44.438Z,67.68
2018-12-05T20:02:13.166Z,67.82
2018-12-05T20:04:41.877Z,66.73
2018-12-05T20:07:10.603Z,67.30
2018-12-05T20:09:39.327Z,67.59
2018-12-05T20:12:08.060Z,67.14
2018-12-05T20:14:36.714Z,67.38
2018-12-05T20:17:05.512Z,67.11
2018-12-05T20:19:35.026Z,67.25
2018-12-05T20:22:03.822Z,66.89
2018-12-05T20:24:32.558Z,66.87
2018-12-05T20:27:01.265Z,66.85
2018-12-05T20:29:30.062Z,66.20
2018-12-05T20:31:58.795Z,66.43
2018-12-05T20:34:27.554Z,66.64
2018-12-05T20:36:56.291Z,66.64
2018-12-05T20:39:26.179Z,65.22
2018-12-05T20:42:02.422Z,65.85
2018-12-05T20:44:31.147Z,66.25
2018-12-05T20:47:00.467Z,65.72
2018-12-05T20:49:29.145Z,65.70
2018-12-05T20:51:57.931Z,65.93
2018-12-05T20:54:26.710Z,65.82
2018-12-05T20:56:55.507Z,65.59
2018-12-05T20:59:24.237Z,65.57
2018-12-05T21:01:53.454Z,66.12
2018-12-05T21:04:22.686Z,66.29
2018-12-05T21:06:51.806Z,66.29
2018-12-05T21:09:20.658Z,67.05
2018-12-05T21:11:49.415Z,66.83
2018-12-05T21:14:18.914Z,66.55
2018-12-05T21:20:43.366Z,67.41
2018-12-05T21:23:12.087Z,68.01
2018-12-05T21:25:40.811Z,67.78
2018-12-05T21:28:10.293Z,67.76
2018-12-05T21:30:38.992Z,67.18
2018-12-05T21:33:07.753Z,67.39
2018-12-05T21:35:36.560Z,67.21
2018-12-05T21:38:05.379Z,67.85
2018-12-05T21:40:34.099Z,68.00
2018-12-05T21:43:02.817Z,67.80
2018-12-05T21:45:31.507Z,68.37
2018-12-05T21:48:00.226Z,67.89
2018-12-05T21:50:29.732Z,67.87
2018-12-05T21:52:58.390Z,67.61
2018-12-05T21:55:27.062Z,67.98
2018-12-05T21:57:55.779Z,68.56
2018-12-05T22:00:24.500Z,67.46
2018-12-05T22:02:53.218Z,68.11
2018-12-05T22:05:21.978Z,67.81
2018-12-05T22:07:50.648Z,66.92
2018-12-05T22:10:19.340Z,67.13
2018-12-05T22:12:48.058Z,66.98
2018-12-05T22:15:16.784Z,67.92
2018-12-05T22:17:45.554Z,67.55
2018-12-05T22:20:14.278Z,67.23
2018-12-05T22:22:43.015Z,67.24
2018-12-05T22:25:11.763Z,67.40
2018-12-05T22:27:40.460Z,67.32
2018-12-05T22:30:09.539Z,67.98
2018-12-05T22:32:38.225Z,68.15
2018-12-05T22:35:07.014Z,68.23
2018-12-05T22:37:35.670Z,67.94
2018-12-05T22:40:05.835Z,68.19
2018-12-05T22:42:34.519Z,69.04
2018-12-05T22:45:03.321Z,68.18
2018-12-05T22:47:32.084Z,68.78
2018-12-05T22:50:00.822Z,68.89
2018-12-05T22:52:29.499Z,69.32
2018-12-05T22:54:58.261Z,68.90
2018-12-05T22:57:26.997Z,69.33
2018-12-05T22:59:55.646Z,68.84
2018-12-05T23:02:24.362Z,68.95
2018-12-05T23:04:53.090Z,68.67
2018-12-05T23:07:21.770Z,68.86
2018-12-05T23:09:50.439Z,69.01
2018-12-05T23:12:19.161Z,69.16
2018-12-05T23:14:47.963Z,69.12
2018-12-05T23:17:16.687Z,69.61
2018-12-05T23:19:45.374Z,68.99
2018-12-05T23:22:14.085Z,68.77
2018-12-05T23:24:42.791Z,69.65
2018-12-05T23:27:11.474Z,69.45
2018-12-05T23:29:40.191Z,68.92
2018-12-05T23:32:08.934Z,69.62
2018-12-05T23:34:37.659Z,70.19
2018-12-05T23:37:06.342Z,70.06
2018-12-05T23:39:35.137Z,70.69
2018-12-05T23:42:03.900Z,70.07
2018-12-05T23:44:32.587Z,70.29
2018-12-05T23:47:01.347Z,69.49
2018-12-05T23:49:30.100Z,70.43
2018-12-05T23:51:58.815Z,69.94
2018-12-05T23:54:27.454Z,71.19
2018-12-05T23:56:56.202Z,70.32
2018-12-05T23:59:24.854Z,70.07
